Time;durP1;ratioP1;P1;durP2;ratioP2;P2;SDS_P1;SDS_P2;PMS_P1;PMS_P2;Temp;Humidity;BMP_temperature;BMP_pressure;BME280_temperature;BME280_humidity;BME280_pressure;Samples;Min_cycle;Max_cycle;Signal;HPM_P1;HPM_P2
2023/10/09 00:00:50;;;;;;;;;;;;;;;;;;6088204;23;20205;-89
2023/10/09 00:03:17;;;;;;;;;;;;;;;;;;6088316;23;19906;-89
2023/10/09 00:05:46;;;;;;;;;;;;;;;;;;6088772;23;20590;-90
2023/10/09 00:08:17;;;;;;;;;;;;;;;;;;6088163;23;19928;-90
2023/10/09 00:10:52;;;;;;;;;;;;;;;;;;6088451;23;19905;-90
2023/10/09 00:13:18;;;;;;;;;;;;;;;;;;6087616;23;19916;-89
2023/10/09 00:15:52;;;;;;;;;;;;;;;;;;6088506;23;19905;-89
2023/10/09 00:18:22;;;;;;;;;;;;;;;;;;6087929;23;19924;-91
2023/10/09 00:20:54;;;;;;;;;;;;;;;;;;6088931;23;19989;-91
2023/10/09 00:23:22;;;;;;;;;;;;;;;;;;6090481;23;19909;-93
2023/10/09 00:25:54;;;;;;;;;;;;;;;;;;6090927;23;20287;-90
2023/10/09 00:28:22;;;;;;;;;;;;;;;;;;6089703;23;20367;-89
2023/10/09 00:30:48;;;;;;;;;;;;;;;;;;6088914;23;19913;-90
2023/10/09 00:33:15;;;;;;;;;;;;;;;;;;6088873;23;19932;-90
2023/10/09 00:40:47;;;;;;;;;;;;;;;;;;6090528;23;19909;-89
2023/10/09 00:43:13;;;;;;;;;;;;;;;;;;6088607;23;20355;-90
2023/10/09 00:45:40;;;;;;;;;;;;;;;;;;6089109;23;19933;-91
2023/10/09 00:48:06;;;;;;;;;;;;;;;;;;6089514;23;19905;-89
2023/10/09 00:50:35;;;;;;;;;;;;;;;;;;6091456;23;19916;-90
2023/10/09 00:53:02;;;;;;;;;;;;;;;;;;6088184;23;19905;-90
2023/10/09 00:55:45;;;;;;;;;;;;;;;;;;6090189;23;19921;-90
2023/10/09 00:58:12;;;;;;;;;;;;;;;;;;6090017;23;19920;-90
2023/10/09 01:03:18;;;;;;;;;;;;;;;;;;6101032;23;19924;-90
2023/10/09 01:05:57;;;;;;;;;;;;;;;;;;6090521;23;20355;-90
2023/10/09 01:08:25;;;;;;;;;;;;;;;;;;6091845;23;20376;-90
2023/10/09 01:10:56;;;;;;;;;;;;;;;;;;6088918;23;19910;-90
2023/10/09 01:13:27;;;;;;;;;;;;;;;;;;6088122;23;20284;-90
2023/10/09 01:15:53;;;;;;;;;;;;;;;;;;6089569;23;19920;-90
2023/10/09 01:18:19;;;;;;;;;;;;;;;;;;6088995;23;19913;-90
2023/10/09 01:20:46;;;;;;;;;;;;;;;;;;6089801;23;19961;-90
2023/10/09 01:23:11;;;;;;;;;;;;;;;;;;6089921;23;19909;-90
2023/10/09 01:25:49;;;;;;;;;;;;;;;;;;6090400;23;19932;-90
2023/10/09 01:28:15;;;;;;;;;;;;;;;;;;6089957;23;19925;-91
2023/10/09 01:30:41;;;;;;;;;;;;;;;;;;6090447;23;20308;-90
2023/10/09 01:33:13;;;;;;;;;;;;;;;;;;6088548;23;19920;-90
2023/10/09 01:35:50;;;;;;;;;;;;;;;;;;6090665;23;19906;-90
2023/10/09 01:38:16;;;;;;;;;;;;;;;;;;6089205;23;19920;-89
2023/10/09 01:40:44;;;;;;;;;;;;;;;;;;6088339;23;19982;-89
2023/10/09 01:43:10;;;;;;;;;;;;;;;;;;6087517;23;20658;-88
2023/10/09 01:45:42;;;;;;;;;;;;;;;;;;6089776;23;20355;-90
2023/10/09 01:48:09;;;;;;;;;;;;;;;;;;6088656;23;19913;-89
2023/10/09 01:50:41;;;;;;;;;;;;;;;;;;6089504;23;19906;-89
2023/10/09 01:53:08;;;;;;;;;;;;;;;;;;6086375;23;19909;-89
2023/10/09 01:55:34;;;;;;;;;;;;;;;;;;6090009;23;19967;-89
2023/10/09 01:58:05;;;;;;;;;;;;;;;;;;6087915;23;19913;-89
2023/10/09 02:00:35;;;;;;;;;;;;;;;;;;6088658;23;20386;-88
2023/10/09 02:03:04;;;;;;;;;;;;;;;;;;6087620;23;19909;-89
2023/10/09 02:05:36;;;;;;;;;;;;;;;;;;6088406;23;19936;-88
2023/10/09 02:08:04;;;;;;;;;;;;;;;;;;6087824;23;19992;-89
2023/10/09 02:12:58;;;;;;;;;;;;;;;;;;6098426;23;19912;-89
2023/10/09 02:21:01;;;;;;;;;;;;;;;;;;6105356;23;19916;-89
2023/10/09 02:26:26;;;;;;;;;;;;;;;;;;6059732;23;19916;-89
2023/10/09 02:29:42;;;;;;;;;;;;;;;;;;6088906;23;20271;-88
2023/10/09 02:31:44;;;;;;;;;;;;;;;;;;6079175;23;19948;-88
2023/10/09 02:34:15;;;;;;;;;;;;;;;;;;6088716;23;20355;-89
2023/10/09 02:36:49;;;;;;;;;;;;;;;;;;6084646;23;19916;-90
2023/10/09 02:39:28;;;;;;;;;;;;;;;;;;6090328;23;19910;-92
2023/10/09 02:42:20;;;;;;;;;;;;;;;;;;6093283;23;19909;-93
2023/10/09 02:44:51;;;;;;;;;;;;;;;;;;6092629;23;19916;-92
2023/10/09 02:47:31;;;;;;;;;;;;;;;;;;6101575;23;20367;-90
2023/10/09 02:50:06;;;;;;;;;;;;;;;;;;6089115;23;20017;-90
2023/10/09 02:52:40;;;;;;;;;;;;;;;;;;6087732;23;19929;-89
2023/10/09 02:55:08;;;;;;;;;;;;;;;;;;6091104;23;19912;-89
2023/10/09 02:57:37;;;;;;;;;;;;;;;;;;6064260;23;19920;-89
2023/10/09 03:00:03;;;;;;;;;;;;;;;;;;6065269;23;19905;-90
2023/10/09 03:02:31;;;;;;;;;;;;;;;;;;6064159;23;19937;-89
2023/10/09 03:04:58;;;;;;;;;;;;;;;;;;6064280;23;20185;-90
2023/10/09 03:07:25;;;;;;;;;;;;;;;;;;6064546;23;19909;-90
2023/10/09 03:09:51;;;;;;;;;;;;;;;;;;6064251;23;19909;-89
2023/10/09 03:12:18;;;;;;;;;;;;;;;;;;6090511;23;19920;-90
2023/10/09 03:14:44;;;;;;;;;;;;;;;;;;6063407;23;19909;-89
2023/10/09 03:17:13;;;;;;;;;;;;;;;;;;6064327;23;19960;-89
2023/10/09 03:19:39;;;;;;;;;;;;;;;;;;6063989;23;19917;-89
2023/10/09 03:22:09;;;;;;;;;;;;;;;;;;6063744;23;19913;-89
2023/10/09 03:24:35;;;;;;;;;;;;;;;;;;6065630;23;19960;-89
2023/10/09 03:27:01;;;;;;;;;;;;;;;;;;6064261;23;20470;-90
2023/10/09 03:29:27;;;;;;;;;;;;;;;;;;6064656;23;19913;-90
2023/10/09 03:31:55;;;;;;;;;;;;;;;;;;6064797;23;19980;-89
2023/10/09 03:34:21;;;;;;;;;;;;;;;;;;6064692;23;19917;-90
2023/10/09 03:36:48;;;;;;;;;;;;;;;;;;6063094;23;20324;-90
2023/10/09 03:41:58;;;;;;;;;;;;;;;;;;6090990;23;19991;-90
2023/10/09 03:44:28;;;;;;;;;;;;;;;;;;6065030;23;19932;-90
2023/10/09 03:46:54;;;;;;;;;;;;;;;;;;6065353;23;19909;-88
2023/10/09 03:49:25;;;;;;;;;;;;;;;;;;6064590;23;19955;-90
2023/10/09 03:51:51;;;;;;;;;;;;;;;;;;6064657;23;19912;-91
2023/10/09 03:54:20;;;;;;;;;;;;;;;;;;6064670;23;19905;-90
2023/10/09 03:56:49;;;;;;;;;;;;;;;;;;6081219;23;19928;-90
2023/10/09 03:59:16;;;;;;;;;;;;;;;;;;6088482;23;19913;-88
2023/10/09 04:01:53;;;;;;;;;;;;;;;;;;6089098;23;19933;-90
2023/10/09 04:04:22;;;;;;;;;;;;;;;;;;6087973;23;20020;-89
2023/10/09 04:06:48;;;;;;;;;;;;;;;;;;6087885;23;19963;-89
2023/10/09 04:14:34;;;;;;;;;;;;;;;;;;6089525;23;19956;-90
2023/10/09 04:17:05;;;;;;;;;;;;;;;;;;6087682;23;19917;-89
2023/10/09 04:19:38;;;;;;;;;;;;;;;;;;6088617;23;19909;-90
2023/10/09 04:22:07;;;;;;;;;;;;;;;;;;6087636;23;20423;-88
2023/10/09 04:24:44;;;;;;;;;;;;;;;;;;6089067;23;19952;-90
2023/10/09 04:27:10;;;;;;;;;;;;;;;;;;6089118;23;20366;-89
2023/10/09 04:29:39;;;;;;;;;;;;;;;;;;6089354;23;19905;-89
2023/10/09 04:32:07;;;;;;;;;;;;;;;;;;6091420;23;19909;-90
2023/10/09 04:34:38;;;;;;;;;;;;;;;;;;6089714;23;19909;-90
2023/10/09 04:39:46;;;;;;;;;;;;;;;;;;6102095;23;19909;-90
2023/10/09 04:45:25;;;;;;;;;;;;;;;;;;6100713;23;20336;-91
2023/10/09 04:47:57;;;;;;;;;;;;;;;;;;6091661;23;19909;-90
2023/10/09 04:52:56;;;;;;;;;;;;;;;;;;6100332;23;20612;-89
2023/10/09 04:55:25;;;;;;;;;;;;;;;;;;6089215;23;19913;-90
2023/10/09 04:58:00;;;;;;;;;;;;;;;;;;6088816;23;19921;-90
2023/10/09 05:02:56;;;;;;;;;;;;;;;;;;6092099;23;19909;-89
2023/10/09 05:16:07;;;;;;;;;;;;;;;;;;6099982;23;19964;-89
2023/10/09 05:18:37;;;;;;;;;;;;;;;;;;6090767;23;20608;-90
2023/10/09 05:24:15;;;;;;;;;;;;;;;;;;6090890;23;19956;-90
2023/10/09 05:37:33;;;;;;;;;;;;;;;;;;6091438;23;19920;-90
2023/10/09 05:42:42;;;;;;;;;;;;;;;;;;6101605;23;19916;-90
2023/10/09 05:48:07;;;;;;;;;;;;;;;;;;6092446;23;19916;-91
2023/10/09 05:51:10;;;;;;;;;;;;;;;;;;6090711;23;19931;-90
2023/10/09 06:03:16;;;;;;;;;;;;;;;;;;6103052;23;19912;-90
2023/10/09 06:07:13;;;;;;;;;;;;;;;;;;6092068;23;19916;-91
2023/10/09 06:09:57;;;;;;;;;;;;;;;;;;6066189;23;19929;-90
2023/10/09 06:12:33;;;;;;;;;;;;;;;;;;6068274;23;19949;-90
2023/10/09 06:15:18;;;;;;;;;;;;;;;;;;6065746;23;20391;-90
2023/10/09 06:17:50;;;;;;;;;;;;;;;;;;6089981;23;19914;-91
2023/10/09 06:23:15;;;;;;;;;;;;;;;;;;6090702;23;19957;-90
2023/10/09 06:25:50;;;;;;;;;;;;;;;;;;6067869;23;19906;-91
2023/10/09 06:28:18;;;;;;;;;;;;;;;;;;6066666;23;19909;-91
2023/10/09 06:30:47;;;;;;;;;;;;;;;;;;6065955;23;19912;-90
2023/10/09 06:33:19;;;;;;;;;;;;;;;;;;6067587;23;20387;-91
2023/10/09 06:35:53;;;;;;;;;;;;;;;;;;6065502;23;19913;-91
2023/10/09 06:38:22;;;;;;;;;;;;;;;;;;6067731;23;19920;-90
2023/10/09 06:43:26;;;;;;;;;;;;;;;;;;6101986;23;20561;-90
2023/10/09 06:45:57;;;;;;;;;;;;;;;;;;6066342;23;19936;-89
2023/10/09 06:51:15;;;;;;;;;;;;;;;;;;6097318;23;20697;-90
2023/10/09 06:53:58;;;;;;;;;;;;;;;;;;6065434;23;19916;-90
2023/10/09 06:59:04;;;;;;;;;;;;;;;;;;6100582;23;19920;-91
2023/10/09 07:01:42;;;;;;;;;;;;;;;;;;6090836;23;19944;-90
2023/10/09 07:06:56;;;;;;;;;;;;;;;;;;6092070;23;19915;-90
2023/10/09 07:09:22;;;;;;;;;;;;;;;;;;6089750;23;20007;-91
2023/10/09 07:17:00;;;;;;;;;;;;;;;;;;6092454;23;19940;-90
2023/10/09 07:19:57;;;;;;;;;;;;;;;;;;6089312;23;19909;-90
2023/10/09 07:24:53;;;;;;;;;;;;;;;;;;6091284;23;20012;-91
2023/10/09 07:32:54;;;;;;;;;;;;;;;;;;6090986;23;19920;-89
2023/10/09 07:35:46;;;;;;;;;;;;;;;;;;6088720;23;19920;-89
2023/10/09 07:38:08;;;;;;;;;;;;;;;;;;6090121;23;19968;-88
2023/10/09 07:40:51;;;;;;;;;;;;;;;;;;6089071;23;19927;-89
2023/10/09 07:43:17;;;;;;;;;;;;;;;;;;6089437;23;19956;-88
2023/10/09 07:48:48;;;;;;;;;;;;;;;;;;6063319;23;20064;-89
2023/10/09 07:51:14;;;;;;;;;;;;;;;;;;6089120;23;19932;-89
2023/10/09 07:53:44;;;;;;;;;;;;;;;;;;6088151;23;20418;-89
2023/10/09 07:56:13;;;;;;;;;;;;;;;;;;6091130;23;19917;-88
2023/10/09 07:58:46;;;;;;;;;;;;;;;;;;6067052;23;20351;-88
2023/10/09 08:04:20;;;;;;;;;;;;;;;;;;6044497;23;20035;-89
2023/10/09 08:06:47;;;;;;;;;;;;;;;;;;6066670;23;19909;-89
2023/10/09 08:17:15;;;;;;;;;;;;;;;;;;6059600;23;19996;-89
2023/10/09 08:19:54;;;;;;;;;;;;;;;;;;6067048;23;19933;-88
2023/10/09 08:24:58;;;;;;;;;;;;;;;;;;6104303;23;19910;-88
2023/10/09 08:32:42;;;;;;;;;;;;;;;;;;6092048;23;19956;-88
2023/10/09 08:35:29;;;;;;;;;;;;;;;;;;6066944;23;20377;-89
2023/10/09 08:37:54;;;;;;;;;;;;;;;;;;6092436;23;19909;-89
2023/10/09 08:40:20;;;;;;;;;;;;;;;;;;6066491;23;20133;-90
2023/10/09 08:42:49;;;;;;;;;;;;;;;;;;6068211;23;19934;-89
2023/10/09 08:45:16;;;;;;;;;;;;;;;;;;6066207;23;19909;-89
2023/10/09 08:47:42;;;;;;;;;;;;;;;;;;6066844;23;20383;-89
2023/10/09 08:50:13;;;;;;;;;;;;;;;;;;6066877;23;19909;-89
2023/10/09 08:52:39;;;;;;;;;;;;;;;;;;6066975;23;19917;-89
2023/10/09 08:55:08;;;;;;;;;;;;;;;;;;6067619;23;20229;-89
2023/10/09 08:57:34;;;;;;;;;;;;;;;;;;6083706;23;19917;-89
2023/10/09 09:00:01;;;;;;;;;;;;;;;;;;6091281;23;19932;-89
2023/10/09 09:02:28;;;;;;;;;;;;;;;;;;6092036;23;20489;-89
2023/10/09 09:04:54;;;;;;;;;;;;;;;;;;6091065;23;19980;-89
2023/10/09 09:07:20;;;;;;;;;;;;;;;;;;6090640;23;19941;-89
2023/10/09 09:09:46;;;;;;;;;;;;;;;;;;6091256;23;19951;-89
2023/10/09 09:12:12;;;;;;;;;;;;;;;;;;6090797;23;20003;-89
2023/10/09 09:14:38;;;;;;;;;;;;;;;;;;6089240;23;19915;-89
2023/10/09 09:17:05;;;;;;;;;;;;;;;;;;6091749;23;20321;-90
2023/10/09 09:19:31;;;;;;;;;;;;;;;;;;6090625;23;20237;-89
2023/10/09 09:22:11;;;;;;;;;;;;;;;;;;6091492;23;19910;-89
2023/10/09 09:24:37;;;;;;;;;;;;;;;;;;6090511;23;19909;-90
2023/10/09 09:27:18;;;;;;;;;;;;;;;;;;6090308;23;19929;-90
2023/10/09 09:29:52;;;;;;;;;;;;;;;;;;6091713;23;20288;-89
2023/10/09 09:32:19;;;;;;;;;;;;;;;;;;6090780;23;19905;-90
2023/10/09 09:34:54;;;;;;;;;;;;;;;;;;6091108;23;20337;-89
2023/10/09 09:37:20;;;;;;;;;;;;;;;;;;6089816;23;19992;-89
2023/10/09 09:39:51;;;;;;;;;;;;;;;;;;6092332;23;20307;-89
2023/10/09 09:42:18;;;;;;;;;;;;;;;;;;6089239;23;19916;-89
2023/10/09 09:44:44;;;;;;;;;;;;;;;;;;6091454;23;19905;-89
2023/10/09 09:47:12;;;;;;;;;;;;;;;;;;6090937;23;19980;-89
2023/10/09 09:49:38;;;;;;;;;;;;;;;;;;6091165;23;19955;-88
2023/10/09 09:52:09;;;;;;;;;;;;;;;;;;6089579;23;20309;-89
2023/10/09 09:54:38;;;;;;;;;;;;;;;;;;6090196;23;19905;-89
2023/10/09 09:57:08;;;;;;;;;;;;;;;;;;6090375;23;19917;-88
2023/10/09 09:59:35;;;;;;;;;;;;;;;;;;6090216;23;19910;-88
2023/10/09 10:02:07;;;;;;;;;;;;;;;;;;6089750;23;20498;-89
2023/10/09 10:04:35;;;;;;;;;;;;;;;;;;6089266;23;20349;-89
2023/10/09 10:07:08;;;;;;;;;;;;;;;;;;6090798;23;19916;-89
2023/10/09 10:09:38;;;;;;;;;;;;;;;;;;6089207;23;20490;-89
2023/10/09 10:12:09;;;;;;;;;;;;;;;;;;6090338;23;19906;-89
2023/10/09 10:14:38;;;;;;;;;;;;;;;;;;6088857;23;19949;-89
2023/10/09 10:17:27;;;;;;;;;;;;;;;;;;6091061;23;20368;-88
2023/10/09 10:19:50;;;;;;;;;;;;;;;;;;6093918;23;19912;-89
2023/10/09 10:22:21;;;;;;;;;;;;;;;;;;6092365;23;20298;-89
2023/10/09 10:24:54;;;;;;;;;;;;;;;;;;6092651;23;19906;-90
2023/10/09 10:27:32;;;;;;;;;;;;;;;;;;6093422;23;19910;-90
2023/10/09 10:30:00;;;;;;;;;;;;;;;;;;6091960;23;19916;-90
2023/10/09 10:32:25;;;;;;;;;;;;;;;;;;6091887;23;19910;-90
2023/10/09 10:34:59;;;;;;;;;;;;;;;;;;6092667;23;19905;-90
2023/10/09 10:37:28;;;;;;;;;;;;;;;;;;6092017;23;20453;-90
2023/10/09 10:39:59;;;;;;;;;;;;;;;;;;6091838;23;20387;-89
2023/10/09 10:42:34;;;;;;;;;;;;;;;;;;6091834;23;19909;-91
2023/10/09 10:45:02;;;;;;;;;;;;;;;;;;6092227;23;19935;-90
2023/10/09 10:47:35;;;;;;;;;;;;;;;;;;6093709;23;19905;-89
2023/10/09 10:50:34;;;;;;;;;;;;;;;;;;6092143;23;19978;-89
2023/10/09 10:52:57;;;;;;;;;;;;;;;;;;6093720;23;19916;-89
2023/10/09 10:58:02;;;;;;;;;;;;;;;;;;6097115;23;19924;-89
2023/10/09 11:03:23;;;;;;;;;;;;;;;;;;6092309;23;19964;-89
2023/10/09 11:05:55;;;;;;;;;;;;;;;;;;6065997;23;19933;-89
2023/10/09 11:08:22;;;;;;;;;;;;;;;;;;6066075;23;20350;-89
2023/10/09 11:10:53;;;;;;;;;;;;;;;;;;6065568;23;20290;-89
2023/10/09 11:13:34;;;;;;;;;;;;;;;;;;6089938;23;19913;-90
2023/10/09 11:16:28;;;;;;;;;;;;;;;;;;6064753;23;19925;-89
2023/10/09 11:18:57;;;;;;;;;;;;;;;;;;6065626;23;19939;-90
2023/10/09 11:21:30;;;;;;;;;;;;;;;;;;6066147;23;19972;-90
2023/10/09 11:24:24;;;;;;;;;;;;;;;;;;6064220;23;19920;-89
2023/10/09 11:26:53;;;;;;;;;;;;;;;;;;6090886;23;19909;-90
2023/10/09 11:31:51;;;;;;;;;;;;;;;;;;6100440;23;19909;-90
2023/10/09 11:34:23;;;;;;;;;;;;;;;;;;6065810;23;20368;-90
2023/10/09 11:36:55;;;;;;;;;;;;;;;;;;6065300;23;19909;-90
2023/10/09 11:39:22;;;;;;;;;;;;;;;;;;6065063;23;20400;-90
2023/10/09 11:41:49;;;;;;;;;;;;;;;;;;6066775;23;19910;-89
2023/10/09 11:44:24;;;;;;;;;;;;;;;;;;6065689;23;19905;-90
2023/10/09 11:46:50;;;;;;;;;;;;;;;;;;6065176;23;19910;-90
2023/10/09 11:49:32;;;;;;;;;;;;;;;;;;6066725;23;20232;-90
2023/10/09 11:54:39;;;;;;;;;;;;;;;;;;6101123;23;20486;-89
2023/10/09 11:57:05;;;;;;;;;;;;;;;;;;6070759;23;19935;-91
2023/10/09 11:59:37;;;;;;;;;;;;;;;;;;6090114;23;19984;-90
2023/10/09 12:02:03;;;;;;;;;;;;;;;;;;6089461;23;20335;-90
2023/10/09 12:04:30;;;;;;;;;;;;;;;;;;6089918;23;19936;-90
2023/10/09 12:07:06;;;;;;;;;;;;;;;;;;6089535;23;19905;-89
2023/10/09 12:09:34;;;;;;;;;;;;;;;;;;6090378;23;19905;-91
2023/10/09 12:12:00;;;;;;;;;;;;;;;;;;6090652;23;19905;-92
2023/10/09 12:14:33;;;;;;;;;;;;;;;;;;6087247;23;20284;-91
2023/10/09 12:16:59;;;;;;;;;;;;;;;;;;6089079;23;19913;-90
2023/10/09 12:19:25;;;;;;;;;;;;;;;;;;6090403;23;19988;-89
2023/10/09 12:21:51;;;;;;;;;;;;;;;;;;6090495;23;19913;-90
2023/10/09 12:24:18;;;;;;;;;;;;;;;;;;6091115;23;19915;-89
2023/10/09 12:26:45;;;;;;;;;;;;;;;;;;6091079;23;19905;-90
2023/10/09 12:29:12;;;;;;;;;;;;;;;;;;6089018;23;20317;-90
2023/10/09 12:31:38;;;;;;;;;;;;;;;;;;6089538;23;19914;-90
2023/10/09 12:34:05;;;;;;;;;;;;;;;;;;6089845;23;19960;-90
2023/10/09 12:36:37;;;;;;;;;;;;;;;;;;6092198;23;19936;-90
2023/10/09 12:39:03;;;;;;;;;;;;;;;;;;6089330;23;19960;-90
2023/10/09 12:41:33;;;;;;;;;;;;;;;;;;6092187;23;19992;-90
2023/10/09 12:43:59;;;;;;;;;;;;;;;;;;6091607;23;19913;-90
2023/10/09 12:46:32;;;;;;;;;;;;;;;;;;6093555;23;19937;-90
2023/10/09 12:48:58;;;;;;;;;;;;;;;;;;6091330;23;19929;-90
2023/10/09 12:51:29;;;;;;;;;;;;;;;;;;6094985;23;19910;-90
2023/10/09 12:54:01;;;;;;;;;;;;;;;;;;6092088;23;19916;-91
2023/10/09 12:56:37;;;;;;;;;;;;;;;;;;6096050;23;19906;-89
2023/10/09 12:59:04;;;;;;;;;;;;;;;;;;6115545;23;19929;-90
2023/10/09 13:01:31;;;;;;;;;;;;;;;;;;6094311;23;20162;-90
2023/10/09 13:03:59;;;;;;;;;;;;;;;;;;6094547;23;20395;-90
2023/10/09 13:06:43;;;;;;;;;;;;;;;;;;6093454;23;19913;-90
2023/10/09 13:09:09;;;;;;;;;;;;;;;;;;6092789;23;19913;-89
2023/10/09 13:11:37;;;;;;;;;;;;;;;;;;6093903;23;19979;-90
2023/10/09 13:14:11;;;;;;;;;;;;;;;;;;6094100;23;19936;-91
2023/10/09 13:16:37;;;;;;;;;;;;;;;;;;6094629;23;19957;-91
2023/10/09 13:19:09;;;;;;;;;;;;;;;;;;6091496;23;19917;-89
2023/10/09 13:21:37;;;;;;;;;;;;;;;;;;6092544;23;20296;-89
2023/10/09 13:24:03;;;;;;;;;;;;;;;;;;6091871;23;19909;-89
2023/10/09 13:26:35;;;;;;;;;;;;;;;;;;6092064;23;19919;-89
2023/10/09 13:29:01;;;;;;;;;;;;;;;;;;6092750;23;20040;-90
2023/10/09 13:31:27;;;;;;;;;;;;;;;;;;6092380;23;19937;-89
2023/10/09 13:33:56;;;;;;;;;;;;;;;;;;6092263;23;19929;-90
2023/10/09 13:36:31;;;;;;;;;;;;;;;;;;6090965;23;19945;-89
2023/10/09 13:38:57;;;;;;;;;;;;;;;;;;6088305;23;20355;-89
2023/10/09 13:41:28;;;;;;;;;;;;;;;;;;6089943;23;19905;-89
2023/10/09 13:43:54;;;;;;;;;;;;;;;;;;6092046;23;19936;-89
2023/10/09 13:46:20;;;;;;;;;;;;;;;;;;6092206;23;19906;-89
2023/10/09 13:48:49;;;;;;;;;;;;;;;;;;6090695;23;19910;-89
2023/10/09 13:51:17;;;;;;;;;;;;;;;;;;6091042;23;19912;-89
2023/10/09 13:53:46;;;;;;;;;;;;;;;;;;6090192;23;19905;-89
2023/10/09 13:56:14;;;;;;;;;;;;;;;;;;6089304;23;20127;-88
2023/10/09 13:58:46;;;;;;;;;;;;;;;;;;6090375;23;19921;-89
2023/10/09 14:01:20;;;;;;;;;;;;;;;;;;6092150;23;20336;-89
2023/10/09 14:03:49;;;;;;;;;;;;;;;;;;6091173;23;20256;-89
2023/10/09 14:06:19;;;;;;;;;;;;;;;;;;6090729;23;19981;-88
2023/10/09 14:08:48;;;;;;;;;;;;;;;;;;6090062;23;20251;-89
2023/10/09 14:11:14;;;;;;;;;;;;;;;;;;6093110;23;19905;-89
2023/10/09 14:13:40;;;;;;;;;;;;;;;;;;6088245;23;19905;-89
2023/10/09 14:16:06;;;;;;;;;;;;;;;;;;6089383;23;20182;-89
2023/10/09 14:18:32;;;;;;;;;;;;;;;;;;6088736;23;19909;-89
2023/10/09 14:20:58;;;;;;;;;;;;;;;;;;6089846;23;19909;-89
2023/10/09 14:23:32;;;;;;;;;;;;;;;;;;6090086;23;19916;-89
2023/10/09 14:26:01;;;;;;;;;;;;;;;;;;6092063;23;19944;-88
2023/10/09 14:28:28;;;;;;;;;;;;;;;;;;6091430;23;19968;-91
2023/10/09 14:30:59;;;;;;;;;;;;;;;;;;6091128;23;19912;-91
2023/10/09 14:33:27;;;;;;;;;;;;;;;;;;6091508;23;20244;-91
2023/10/09 14:35:53;;;;;;;;;;;;;;;;;;6090424;23;19952;-91
2023/10/09 14:38:26;;;;;;;;;;;;;;;;;;6090508;23;19917;-90
2023/10/09 14:40:57;;;;;;;;;;;;;;;;;;6092511;23;19984;-91
2023/10/09 14:43:28;;;;;;;;;;;;;;;;;;6090382;23;19915;-91
2023/10/09 14:45:53;;;;;;;;;;;;;;;;;;6088648;23;19912;-91
2023/10/09 14:48:25;;;;;;;;;;;;;;;;;;6088867;23;19944;-91
2023/10/09 14:50:54;;;;;;;;;;;;;;;;;;6087991;23;19956;-90
2023/10/09 14:53:20;;;;;;;;;;;;;;;;;;6089215;23;19917;-91
2023/10/09 14:55:47;;;;;;;;;;;;;;;;;;6090322;23;19978;-91
2023/10/09 14:58:13;;;;;;;;;;;;;;;;;;6089306;23;20028;-91
2023/10/09 15:00:46;;;;;;;;;;;;;;;;;;6065802;23;19937;-91
2023/10/09 15:03:14;;;;;;;;;;;;;;;;;;6066729;23;19984;-91
2023/10/09 15:05:41;;;;;;;;;;;;;;;;;;6063610;23;19914;-92
2023/10/09 15:08:10;;;;;;;;;;;;;;;;;;6067584;23;19909;-91
2023/10/09 15:10:37;;;;;;;;;;;;;;;;;;6070070;23;20390;-91
2023/10/09 15:13:04;;;;;;;;;;;;;;;;;;6068102;23;20300;-92
2023/10/09 15:15:31;;;;;;;;;;;;;;;;;;6065236;23;19920;-91
2023/10/09 15:17:57;;;;;;;;;;;;;;;;;;6063586;23;19913;-91
2023/10/09 15:20:23;;;;;;;;;;;;;;;;;;6063784;23;19916;-91
2023/10/09 15:22:49;;;;;;;;;;;;;;;;;;6066976;23;20186;-90
2023/10/09 15:25:23;;;;;;;;;;;;;;;;;;6062742;23;22196;-90
2023/10/09 15:27:50;;;;;;;;;;;;;;;;;;6065372;23;19914;-90
2023/10/09 15:30:16;;;;;;;;;;;;;;;;;;6064782;23;19936;-90
2023/10/09 15:32:42;;;;;;;;;;;;;;;;;;6065123;23;20341;-90
2023/10/09 15:35:12;;;;;;;;;;;;;;;;;;6064583;23;19921;-90
2023/10/09 15:37:42;;;;;;;;;;;;;;;;;;6067904;23;19933;-91
2023/10/09 15:40:18;;;;;;;;;;;;;;;;;;6068496;23;19905;-90
2023/10/09 15:42:57;;;;;;;;;;;;;;;;;;6069492;23;19909;-90
2023/10/09 15:45:24;;;;;;;;;;;;;;;;;;6067538;23;20288;-91
2023/10/09 15:47:51;;;;;;;;;;;;;;;;;;6064682;23;19921;-90
2023/10/09 15:50:17;;;;;;;;;;;;;;;;;;6064971;23;19997;-91
2023/10/09 15:52:42;;;;;;;;;;;;;;;;;;6064719;23;20277;-90
2023/10/09 15:55:13;;;;;;;;;;;;;;;;;;6063652;23;19952;-90
2023/10/09 15:57:39;;;;;;;;;;;;;;;;;;6065344;23;20176;-91
2023/10/09 16:00:13;;;;;;;;;;;;;;;;;;6082206;23;19921;-90
2023/10/09 16:02:40;;;;;;;;;;;;;;;;;;6088770;23;19909;-90
2023/10/09 16:05:06;;;;;;;;;;;;;;;;;;6089624;23;20324;-90
2023/10/09 16:07:35;;;;;;;;;;;;;;;;;;6088587;23;19909;-90
2023/10/09 16:10:05;;;;;;;;;;;;;;;;;;6088554;23;19933;-90
2023/10/09 16:12:31;;;;;;;;;;;;;;;;;;6088436;23;19917;-90
2023/10/09 16:15:04;;;;;;;;;;;;;;;;;;6086300;23;20430;-90
2023/10/09 16:17:30;;;;;;;;;;;;;;;;;;6088226;23;19921;-90
2023/10/09 16:19:56;;;;;;;;;;;;;;;;;;6090945;23;19933;-90
2023/10/09 16:22:24;;;;;;;;;;;;;;;;;;6090076;23;19920;-90
2023/10/09 16:24:52;;;;;;;;;;;;;;;;;;6090589;23;19913;-90
2023/10/09 16:27:27;;;;;;;;;;;;;;;;;;6091078;23;19989;-90
2023/10/09 16:29:53;;;;;;;;;;;;;;;;;;6089331;23;19968;-90
2023/10/09 16:32:31;;;;;;;;;;;;;;;;;;;;;
2023/10/09 16:35:01;;;;;;;;;;;;;;;;;;6093149;23;20387;-91
2023/10/09 16:37:28;;;;;;;;;;;;;;;;;;6089460;23;19956;-89
2023/10/09 16:39:54;;;;;;;;;;;;;;;;;;6088822;23;19996;-90
2023/10/09 16:42:24;;;;;;;;;;;;;;;;;;6092881;23;20009;-90
2023/10/09 16:44:50;;;;;;;;;;;;;;;;;;6094751;23;19925;-90
2023/10/09 16:47:19;;;;;;;;;;;;;;;;;;6093702;23;19910;-90
2023/10/09 16:49:51;;;;;;;;;;;;;;;;;;6091457;23;20008;-88
2023/10/09 16:52:17;;;;;;;;;;;;;;;;;;6087527;23;20328;-90
2023/10/09 16:54:45;;;;;;;;;;;;;;;;;;6087335;23;19919;-88
2023/10/09 16:57:12;;;;;;;;;;;;;;;;;;6085974;23;19906;-90
2023/10/09 16:59:41;;;;;;;;;;;;;;;;;;6089991;23;19948;-89
2023/10/09 17:02:12;;;;;;;;;;;;;;;;;;6087043;23;19910;-89
2023/10/09 17:04:39;;;;;;;;;;;;;;;;;;6088396;23;20332;-89
2023/10/09 17:07:14;;;;;;;;;;;;;;;;;;6093160;23;19920;-89
2023/10/09 17:09:57;;;;;;;;;;;;;;;;;;;;;
2023/10/09 17:12:23;;;;;;;;;;;;;;;;;;6095363;23;19996;-89
2023/10/09 17:15:01;;;;;;;;;;;;;;;;;;;;;
2023/10/09 17:17:31;;;;;;;;;;;;;;;;;;6093625;23;20519;-89
2023/10/09 17:19:57;;;;;;;;;;;;;;;;;;6090635;23;19954;-89
2023/10/09 17:22:24;;;;;;;;;;;;;;;;;;6091118;23;20012;-90
2023/10/09 17:24:53;;;;;;;;;;;;;;;;;;6090819;23;20346;-89
2023/10/09 17:27:19;;;;;;;;;;;;;;;;;;6088428;23;20509;-89
2023/10/09 17:29:46;;;;;;;;;;;;;;;;;;6092359;23;19910;-89
2023/10/09 17:32:12;;;;;;;;;;;;;;;;;;6091506;23;19932;-89
2023/10/09 17:34:39;;;;;;;;;;;;;;;;;;6087761;23;19920;-89
2023/10/09 17:37:05;;;;;;;;;;;;;;;;;;6088515;23;20031;-90
2023/10/09 17:39:31;;;;;;;;;;;;;;;;;;6090952;23;19948;-89
2023/10/09 17:41:57;;;;;;;;;;;;;;;;;;6088175;23;20317;-89
2023/10/09 17:44:24;;;;;;;;;;;;;;;;;;6091804;23;19909;-89
2023/10/09 17:46:50;;;;;;;;;;;;;;;;;;6091144;23;19913;-90
2023/10/09 17:49:16;;;;;;;;;;;;;;;;;;6092585;23;19909;-89
2023/10/09 17:51:46;;;;;;;;;;;;;;;;;;6088891;23;19906;-90
2023/10/09 17:54:13;;;;;;;;;;;;;;;;;;6090053;23;19941;-90
2023/10/09 17:56:47;;;;;;;;;;;;;;;;;;6091340;23;19913;-89
2023/10/09 17:59:13;;;;;;;;;;;;;;;;;;6098133;23;20239;-89
2023/10/09 18:01:39;;;;;;;;;;;;;;;;;;6066971;23;19909;-90
2023/10/09 18:04:05;;;;;;;;;;;;;;;;;;6067965;23;19905;-89
2023/10/09 18:06:34;;;;;;;;;;;;;;;;;;6067554;23;19913;-90
2023/10/09 18:09:15;;;;;;;;;;;;;;;;;;6063896;23;19909;-90
2023/10/09 18:11:40;;;;;;;;;;;;;;;;;;6066263;23;19933;-90
2023/10/09 18:14:07;;;;;;;;;;;;;;;;;;6064774;23;19909;-90
2023/10/09 18:16:33;;;;;;;;;;;;;;;;;;6065695;23;19913;-90
2023/10/09 18:19:01;;;;;;;;;;;;;;;;;;6064488;23;20394;-90
2023/10/09 18:21:27;;;;;;;;;;;;;;;;;;6066606;23;20221;-89
2023/10/09 18:23:55;;;;;;;;;;;;;;;;;;6064025;23;19916;-90
2023/10/09 18:26:23;;;;;;;;;;;;;;;;;;6066920;23;19905;-90
2023/10/09 18:28:49;;;;;;;;;;;;;;;;;;6066251;23;20016;-90
2023/10/09 18:31:20;;;;;;;;;;;;;;;;;;6065449;23;19987;-89
2023/10/09 18:33:46;;;;;;;;;;;;;;;;;;6065506;23;19912;-89
2023/10/09 18:36:12;;;;;;;;;;;;;;;;;;6063714;23;20494;-90
2023/10/09 18:38:38;;;;;;;;;;;;;;;;;;6063405;23;19913;-90
2023/10/09 18:41:15;;;;;;;;;;;;;;;;;;6063975;23;19951;-90
2023/10/09 18:43:41;;;;;;;;;;;;;;;;;;6064489;23;19924;-89
2023/10/09 18:46:11;;;;;;;;;;;;;;;;;;6063561;23;19909;-90
2023/10/09 18:48:40;;;;;;;;;;;;;;;;;;6064477;23;20316;-89
2023/10/09 18:51:07;;;;;;;;;;;;;;;;;;6060964;23;19924;-90
2023/10/09 18:53:34;;;;;;;;;;;;;;;;;;6063483;23;20350;-90
2023/10/09 18:56:06;;;;;;;;;;;;;;;;;;6090358;23;19980;-90
2023/10/09 18:58:33;;;;;;;;;;;;;;;;;;6065017;23;19914;-90
2023/10/09 19:01:01;;;;;;;;;;;;;;;;;;6084078;23;19921;-89
2023/10/09 19:03:28;;;;;;;;;;;;;;;;;;6088609;23;19999;-89
2023/10/09 19:05:55;;;;;;;;;;;;;;;;;;6088797;23;19906;-89
2023/10/09 19:08:21;;;;;;;;;;;;;;;;;;6089077;23;20213;-90
2023/10/09 19:10:47;;;;;;;;;;;;;;;;;;6089100;23;19921;-90
2023/10/09 19:13:16;;;;;;;;;;;;;;;;;;6087960;23;20478;-90
2023/10/09 19:15:42;;;;;;;;;;;;;;;;;;6088364;23;19906;-91
2023/10/09 19:18:11;;;;;;;;;;;;;;;;;;6089775;23;19914;-90
2023/10/09 19:20:38;;;;;;;;;;;;;;;;;;6088250;23;20371;-90
2023/10/09 19:23:05;;;;;;;;;;;;;;;;;;6091245;23;19944;-90